Terminal Aerodrome Forecast
Issued by NWS Sterling, VA

Current Version | Previous Version | Text Only | Print | Product List | Glossary On
Versions: 1 2 3 4 5 6 7 8 9 10 11 12 13 14 15 16 17 18
000
FTUS41 KLWX 201133
TAFMRB
TAF
KMRB 201133Z 2012/2112 16006KT P6SM FEW060 SCT070 OVC090
     FM201600 25004KT P6SM BKN080
     FM201800 23005KT P6SM VCTS BKN040CB
     FM202300 17005KT P6SM BKN030
     FM210900 22005KT 4SM BR OVC070=

USA.gov is the U.S. government's official web portal to all federal, state and local government web resources and services.